createdAt,value
2022-12-22T00:02:22.212Z,8.75
2022-12-22T00:05:08.116Z,8.13
2022-12-22T00:07:54.006Z,7.82
2022-12-22T00:10:39.255Z,8.07
2022-12-22T00:13:25.062Z,8.55
2022-12-22T00:16:10.557Z,7.90
2022-12-22T00:18:55.912Z,8.35
2022-12-22T00:21:42.106Z,9.52
2022-12-22T00:24:27.549Z,8.43
2022-12-22T00:27:12.898Z,8.45
2022-12-22T00:30:01.166Z,8.65
2022-12-22T00:32:52.236Z,8.88
2022-12-22T00:35:41.207Z,9.68
2022-12-22T00:38:35.807Z,8.85
2022-12-22T00:41:21.723Z,10.18
2022-12-22T00:44:07.292Z,9.85
2022-12-22T00:46:56.053Z,9.75
2022-12-22T00:49:45.013Z,9.95
2022-12-22T00:52:31.228Z,9.15
2022-12-22T00:55:16.621Z,9.30
2022-12-22T00:58:02.413Z,9.75
2022-12-22T01:00:48.218Z,10.63
2022-12-22T01:03:34.345Z,11.52
2022-12-22T01:06:21.304Z,11.13
2022-12-22T01:09:07.073Z,12.98
2022-12-22T01:11:53.444Z,11.05
2022-12-22T01:14:38.852Z,13.95
2022-12-22T01:17:24.139Z,11.25
2022-12-22T01:20:09.410Z,9.55
2022-12-22T01:22:54.856Z,9.70
2022-12-22T01:25:40.159Z,10.85
2022-12-22T01:28:25.460Z,9.85
2022-12-22T01:31:11.001Z,9.93
2022-12-22T01:33:56.419Z,9.05
2022-12-22T01:36:41.403Z,11.15
2022-12-22T01:39:26.468Z,10.27
2022-12-22T01:42:11.834Z,10.38
2022-12-22T01:44:57.653Z,9.82
2022-12-22T01:47:54.444Z,10.57
2022-12-22T01:50:52.549Z,9.38
2022-12-22T01:53:42.859Z,8.77
2022-12-22T01:56:28.716Z,9.02
2022-12-22T01:59:18.294Z,8.35
2022-12-22T02:02:04.108Z,9.13
2022-12-22T02:04:59.599Z,8.82
2022-12-22T02:08:26.922Z,9.20
2022-12-22T02:11:30.989Z,8.88
2022-12-22T02:14:37.811Z,8.32
2022-12-22T02:17:36.730Z,10.20
2022-12-22T02:20:59.764Z,8.77
2022-12-22T02:24:17.385Z,8.25
2022-12-22T02:27:11.765Z,8.50
2022-12-22T02:30:32.713Z,7.90
2022-12-22T02:33:17.824Z,7.82
2022-12-22T02:36:21.500Z,7.70
2022-12-22T02:39:16.053Z,8.27
2022-12-22T02:42:16.654Z,8.40
2022-12-22T02:45:21.665Z,7.25
2022-12-22T02:48:21.628Z,8.32
2022-12-22T02:51:28.413Z,8.10
2022-12-22T02:54:14.766Z,7.10
2022-12-22T02:57:00.451Z,7.57
2022-12-22T02:59:45.758Z,7.70
2022-12-22T03:02:32.205Z,7.30
2022-12-22T03:05:18.124Z,7.82
2022-12-22T03:08:08.151Z,6.80
2022-12-22T03:10:54.533Z,6.32
2022-12-22T03:13:39.925Z,5.00
2022-12-22T03:16:25.110Z,5.55
2022-12-22T03:19:10.279Z,5.30
2022-12-22T03:21:55.543Z,4.65
2022-12-22T03:24:40.997Z,4.90
2022-12-22T03:27:07.692Z,4.57
2022-12-22T03:29:34.333Z,3.85
2022-12-22T03:32:01.036Z,4.50
2022-12-22T03:34:27.805Z,4.82
2022-12-22T03:36:54.432Z,4.70
2022-12-22T03:39:21.069Z,4.50
2022-12-22T03:42:06.327Z,4.38
2022-12-22T03:44:51.613Z,4.82
2022-12-22T03:47:18.280Z,5.38
2022-12-22T03:49:44.975Z,4.75
2022-12-22T03:52:11.647Z,4.18
2022-12-22T03:54:38.276Z,4.47
2022-12-22T03:57:04.925Z,4.88
2022-12-22T03:59:31.618Z,4.63
2022-12-22T04:01:58.387Z,4.70
2022-12-22T04:04:26.429Z,4.53
2022-12-22T04:06:53.960Z,4.60
2022-12-22T04:09:22.565Z,4.30
2022-12-22T04:12:07.839Z,3.58
2022-12-22T04:14:35.093Z,4.72
2022-12-22T04:17:06.791Z,5.22
2022-12-22T04:19:33.528Z,4.97
2022-12-22T04:22:00.440Z,4.80
2022-12-22T04:24:27.266Z,5.47
2022-12-22T04:26:54.263Z,5.65
2022-12-22T04:29:20.951Z,6.15
2022-12-22T04:31:47.668Z,5.82
2022-12-22T04:34:14.384Z,6.60
2022-12-22T04:36:41.059Z,6.68
2022-12-22T04:39:07.742Z,6.55
2022-12-22T04:41:34.360Z,5.47
2022-12-22T04:44:01.035Z,5.65
2022-12-22T04:46:27.834Z,5.15
2022-12-22T04:48:59.649Z,5.38
2022-12-22T04:51:26.879Z,6.20
2022-12-22T04:53:53.519Z,5.55
2022-12-22T04:56:20.091Z,5.57
2022-12-22T04:58:46.783Z,5.05
2022-12-22T05:01:16.874Z,5.43
2022-12-22T05:03:44.002Z,5.15
2022-12-22T05:06:11.708Z,4.97
2022-12-22T05:08:38.883Z,4.05
2022-12-22T05:11:06.015Z,4.47
2022-12-22T05:13:33.244Z,4.88
2022-12-22T05:16:12.165Z,3.70
2022-12-22T05:18:40.165Z,3.70
2022-12-22T05:21:09.896Z,4.22
2022-12-22T05:23:36.636Z,3.88
2022-12-22T05:26:04.020Z,4.00
2022-12-22T05:28:32.242Z,3.10
2022-12-22T05:31:07.112Z,3.95
2022-12-22T05:33:34.485Z,3.55
2022-12-22T05:36:01.125Z,4.28
2022-12-22T05:38:28.328Z,3.20
2022-12-22T05:41:01.507Z,2.90
2022-12-22T05:43:30.701Z,3.10
2022-12-22T05:45:58.764Z,2.95
2022-12-22T05:48:29.706Z,2.80
2022-12-22T05:50:59.078Z,3.47
2022-12-22T05:53:25.923Z,3.67
2022-12-22T05:55:52.938Z,3.28
2022-12-22T05:58:19.972Z,2.13
2022-12-22T06:00:46.620Z,2.83
2022-12-22T06:03:13.675Z,2.15
2022-12-22T06:05:40.433Z,2.22
2022-12-22T06:08:07.320Z,3.05
2022-12-22T06:10:33.999Z,3.13
2022-12-22T06:13:01.426Z,3.08
2022-12-22T06:15:28.087Z,2.22
2022-12-22T06:17:54.798Z,2.38
2022-12-22T06:20:21.507Z,1.83
2022-12-22T06:22:48.129Z,2.22
2022-12-22T06:25:18.418Z,2.00
2022-12-22T06:27:46.816Z,1.80
2022-12-22T06:30:14.498Z,1.63
2022-12-22T06:32:41.257Z,1.45
2022-12-22T06:35:09.826Z,1.60
2022-12-22T06:37:36.527Z,1.67
2022-12-22T06:40:04.249Z,1.45
2022-12-22T06:42:49.441Z,1.50
2022-12-22T06:45:16.558Z,1.40
2022-12-22T06:47:43.191Z,0.80
2022-12-22T06:50:10.138Z,1.20
2022-12-22T06:52:37.181Z,0.95
2022-12-22T06:55:04.165Z,1.20
2022-12-22T06:57:30.836Z,1.88
2022-12-22T06:59:58.022Z,1.40
2022-12-22T07:02:25.118Z,1.33
2022-12-22T07:04:52.030Z,1.50
2022-12-22T07:07:18.674Z,0.80
2022-12-22T07:09:45.406Z,1.20
2022-12-22T07:12:13.332Z,1.00
2022-12-22T07:14:39.994Z,0.88
2022-12-22T07:17:06.708Z,1.17
2022-12-22T07:19:33.329Z,0.80
2022-12-22T07:21:59.958Z,1.20
2022-12-22T07:24:27.019Z,1.02
2022-12-22T07:26:53.753Z,1.60
2022-12-22T07:29:20.616Z,0.90
2022-12-22T07:31:47.891Z,0.80
2022-12-22T07:34:14.626Z,0.93
2022-12-22T07:36:41.304Z,1.05
2022-12-22T07:39:08.376Z,1.13
2022-12-22T07:41:53.674Z,1.17
2022-12-22T07:44:20.453Z,0.80
2022-12-22T07:46:47.147Z,0.70
2022-12-22T07:49:32.405Z,0.90
2022-12-22T07:51:59.796Z,0.93
2022-12-22T07:54:27.761Z,1.48
2022-12-22T07:56:54.490Z,1.60
2022-12-22T07:59:21.249Z,0.88
2022-12-22T08:01:48.137Z,1.00
2022-12-22T08:04:15.951Z,0.70
2022-12-22T08:06:43.019Z,0.93
2022-12-22T08:09:13.079Z,1.27
2022-12-22T08:11:39.714Z,0.93
2022-12-22T08:14:06.350Z,0.70
2022-12-22T08:16:33.093Z,1.00
2022-12-22T08:19:00.142Z,0.90
2022-12-22T08:21:26.816Z,0.90
2022-12-22T08:23:53.568Z,0.82
2022-12-22T08:26:24.717Z,1.27
2022-12-22T08:28:58.324Z,0.82
2022-12-22T08:31:27.451Z,0.90
2022-12-22T08:33:56.489Z,1.00
2022-12-22T08:36:23.438Z,0.80
2022-12-22T08:38:50.263Z,0.50
2022-12-22T08:41:37.663Z,0.85
2022-12-22T08:44:04.397Z,0.90
2022-12-22T08:46:31.109Z,0.80
2022-12-22T08:48:57.826Z,0.70
2022-12-22T08:51:24.535Z,1.23
2022-12-22T08:54:06.954Z,0.60
2022-12-22T08:56:35.214Z,0.43
2022-12-22T08:59:07.785Z,0.40
2022-12-22T09:01:37.802Z,0.63
2022-12-22T09:04:06.903Z,0.75
2022-12-22T09:06:40.559Z,0.70
2022-12-22T09:09:10.199Z,0.55
2022-12-22T09:11:37.293Z,0.40
2022-12-22T09:14:04.443Z,0.60
2022-12-22T09:16:32.442Z,0.50
2022-12-22T09:18:59.765Z,0.60
2022-12-22T09:21:26.895Z,0.30
2022-12-22T09:23:55.528Z,1.52
2022-12-22T09:26:24.249Z,0.80
2022-12-22T09:28:51.375Z,0.82
2022-12-22T09:31:19.294Z,1.00
2022-12-22T09:33:46.252Z,1.10
2022-12-22T09:36:16.273Z,0.80
2022-12-22T09:38:43.865Z,1.20
2022-12-22T09:41:26.140Z,0.90
2022-12-22T09:43:53.346Z,0.50
2022-12-22T09:46:30.328Z,1.15
2022-12-22T09:48:57.352Z,0.60
2022-12-22T09:51:27.163Z,0.70
2022-12-22T09:53:59.832Z,0.70
2022-12-22T09:56:28.464Z,0.70
2022-12-22T09:58:56.041Z,0.70
2022-12-22T10:01:59.432Z,0.70
2022-12-22T10:04:41.346Z,0.40
2022-12-22T10:07:25.007Z,1.25
2022-12-22T10:09:52.236Z,0.68
2022-12-22T10:12:25.838Z,0.77
2022-12-22T10:14:54.504Z,0.80
2022-12-22T10:17:32.943Z,1.08
2022-12-22T10:20:21.887Z,0.90
2022-12-22T10:22:59.756Z,1.00
2022-12-22T10:25:39.943Z,0.80
2022-12-22T10:28:22.062Z,0.95
2022-12-22T10:30:48.813Z,1.08
2022-12-22T10:33:18.870Z,0.93
2022-12-22T10:35:57.565Z,1.00
2022-12-22T10:38:28.990Z,0.85
2022-12-22T10:41:03.650Z,1.30
2022-12-22T10:43:35.063Z,0.90
2022-12-22T10:46:03.443Z,1.13
2022-12-22T10:48:36.323Z,2.38
2022-12-22T10:51:06.934Z,1.70
2022-12-22T10:53:46.107Z,1.95
2022-12-22T10:56:31.176Z,1.20
2022-12-22T10:59:16.161Z,1.58
2022-12-22T11:01:42.951Z,1.65
2022-12-22T11:04:23.233Z,1.98
2022-12-22T11:06:50.004Z,2.00
2022-12-22T11:09:33.329Z,1.25
2022-12-22T11:12:13.502Z,1.10
2022-12-22T11:14:58.373Z,1.35
2022-12-22T11:17:49.566Z,1.30
2022-12-22T11:20:41.424Z,1.33
2022-12-22T11:23:14.006Z,1.70
2022-12-22T11:25:56.604Z,1.25
2022-12-22T11:31:32.444Z,1.20
2022-12-22T11:34:21.217Z,2.22
2022-12-22T11:37:00.627Z,1.40
2022-12-22T11:39:39.507Z,1.20
2022-12-22T11:42:34.310Z,1.10
2022-12-22T11:45:28.894Z,1.30
2022-12-22T11:48:09.197Z,1.30
2022-12-22T11:51:02.118Z,0.90
2022-12-22T11:54:10.720Z,1.25
2022-12-22T11:56:46.753Z,1.42
2022-12-22T11:59:29.301Z,1.10
2022-12-22T12:02:23.833Z,1.40
2022-12-22T12:05:11.825Z,0.70
2022-12-22T12:07:43.083Z,0.70
2022-12-22T12:10:27.690Z,0.77
2022-12-22T12:13:10.525Z,0.75
2022-12-22T12:15:46.821Z,0.60
2022-12-22T12:18:22.212Z,0.70
2022-12-22T12:21:06.839Z,0.80
2022-12-22T12:23:54.895Z,0.80
2022-12-22T12:26:27.723Z,1.45
2022-12-22T12:29:14.064Z,0.65
2022-12-22T12:31:47.978Z,1.00
2022-12-22T12:34:17.357Z,0.50
2022-12-22T12:36:59.161Z,0.80
2022-12-22T12:39:41.346Z,0.95
2022-12-22T12:42:26.172Z,0.60
2022-12-22T12:44:53.604Z,0.40
2022-12-22T12:47:32.476Z,1.00
2022-12-22T12:50:03.190Z,0.73
2022-12-22T12:52:57.277Z,0.70
2022-12-22T12:55:40.326Z,0.50
2022-12-22T12:58:12.648Z,0.90
2022-12-22T13:03:52.965Z,0.50
2022-12-22T13:06:49.375Z,0.60
2022-12-22T13:12:41.075Z,0.57
2022-12-22T13:15:27.416Z,0.50
2022-12-22T13:17:54.195Z,0.47
2022-12-22T13:20:34.049Z,0.43
2022-12-22T13:23:04.362Z,0.50
2022-12-22T13:26:02.633Z,1.10
2022-12-22T13:28:29.976Z,0.70
2022-12-22T13:31:03.995Z,1.25
2022-12-22T13:33:37.064Z,0.90
2022-12-22T13:36:06.470Z,0.50
2022-12-22T13:38:36.120Z,0.47
2022-12-22T13:41:13.068Z,0.70
2022-12-22T13:43:43.524Z,1.00
2022-12-22T13:46:10.975Z,0.65
2022-12-22T13:48:45.593Z,0.40
2022-12-22T13:51:17.520Z,0.65
2022-12-22T13:54:11.284Z,0.32
2022-12-22T13:56:46.481Z,0.40
2022-12-22T13:59:50.478Z,0.50
2022-12-22T14:02:20.053Z,0.93
2022-12-22T14:05:05.845Z,0.50
2022-12-22T14:07:32.552Z,1.17
2022-12-22T14:09:59.323Z,0.80
2022-12-22T14:12:32.063Z,0.50
2022-12-22T14:15:01.331Z,0.98
2022-12-22T14:17:32.026Z,0.82
2022-12-22T14:20:00.903Z,0.85
2022-12-22T14:22:33.905Z,0.77
2022-12-22T14:25:09.374Z,0.73
2022-12-22T14:27:41.700Z,0.80
2022-12-22T14:32:52.410Z,0.63
2022-12-22T14:35:21.725Z,1.20
2022-12-22T14:38:07.943Z,0.60
2022-12-22T14:40:43.866Z,0.77
2022-12-22T14:43:17.094Z,0.75
2022-12-22T14:45:46.528Z,0.80
2022-12-22T14:48:33.442Z,0.70
2022-12-22T14:51:02.169Z,0.90
2022-12-22T14:53:45.643Z,0.80
2022-12-22T14:56:14.644Z,0.65
2022-12-22T14:58:43.635Z,0.63
2022-12-22T15:01:16.555Z,0.80
2022-12-22T15:03:44.409Z,0.68
2022-12-22T15:06:26.508Z,1.17
2022-12-22T15:09:11.825Z,1.00
2022-12-22T15:11:42.861Z,0.90
2022-12-22T15:14:17.583Z,0.60
2022-12-22T15:16:45.856Z,0.52
2022-12-22T15:19:18.887Z,1.00
2022-12-22T15:21:45.686Z,0.98
2022-12-22T15:24:17.850Z,0.60
2022-12-22T15:26:45.856Z,2.75
2022-12-22T15:29:13.172Z,1.15
2022-12-22T15:31:41.441Z,1.50
2022-12-22T15:34:21.559Z,0.65
2022-12-22T15:36:48.229Z,0.80
2022-12-22T15:39:17.026Z,1.17
2022-12-22T15:41:45.164Z,1.10
2022-12-22T15:44:12.064Z,0.65
2022-12-22T15:46:41.253Z,1.45
2022-12-22T15:49:17.132Z,2.40
2022-12-22T15:51:45.128Z,1.77
2022-12-22T15:54:15.579Z,1.02
2022-12-22T15:56:42.911Z,1.10
2022-12-22T15:59:28.939Z,1.40
2022-12-22T16:02:01.661Z,1.48
2022-12-22T16:04:29.185Z,1.35
2022-12-22T16:06:57.027Z,1.00
2022-12-22T16:09:27.427Z,1.48
2022-12-22T16:11:54.490Z,1.45
2022-12-22T16:14:22.568Z,1.27
2022-12-22T16:16:49.275Z,1.08
2022-12-22T16:19:17.533Z,1.50
2022-12-22T16:21:47.393Z,1.08
2022-12-22T16:24:26.392Z,1.10
2022-12-22T16:26:56.930Z,1.85
2022-12-22T16:29:25.181Z,1.60
2022-12-22T16:31:52.113Z,1.08
2022-12-22T16:34:19.202Z,1.45
2022-12-22T16:36:45.848Z,1.33
2022-12-22T16:39:12.543Z,1.60
2022-12-22T16:41:39.350Z,1.40
2022-12-22T16:46:53.413Z,1.80
2022-12-22T16:49:26.318Z,1.70
2022-12-22T16:51:54.963Z,1.55
2022-12-22T16:54:21.722Z,2.70
2022-12-22T16:56:51.215Z,1.30
2022-12-22T16:59:18.538Z,1.25
2022-12-22T17:01:54.985Z,3.88
2022-12-22T17:04:26.008Z,2.25
2022-12-22T17:06:54.424Z,2.88
2022-12-22T17:09:47.667Z,2.58
2022-12-22T17:12:27.485Z,1.42
2022-12-22T17:14:56.579Z,1.85
2022-12-22T17:17:30.822Z,1.63
2022-12-22T17:19:58.696Z,1.52
2022-12-22T17:22:31.307Z,2.00
2022-12-22T17:25:02.219Z,2.13
2022-12-22T17:27:30.955Z,2.70
2022-12-22T17:30:00.791Z,2.80
2022-12-22T17:32:27.529Z,2.15
2022-12-22T17:34:54.170Z,2.47
2022-12-22T17:37:23.417Z,2.95
2022-12-22T17:39:56.426Z,3.50
2022-12-22T17:42:24.190Z,2.53
2022-12-22T17:44:52.105Z,2.20
2022-12-22T17:47:28.519Z,2.05
2022-12-22T17:49:58.707Z,2.10
2022-12-22T17:52:27.083Z,1.92
2022-12-22T17:54:54.341Z,3.13
2022-12-22T17:57:33.570Z,2.15
2022-12-22T18:00:00.861Z,2.85
2022-12-22T18:02:27.874Z,1.80
2022-12-22T18:04:54.764Z,1.80
2022-12-22T18:07:24.423Z,1.80
2022-12-22T18:09:58.696Z,2.25
2022-12-22T18:12:26.013Z,2.45
2022-12-22T18:14:52.932Z,2.17
2022-12-22T18:17:35.136Z,2.42
2022-12-22T18:20:02.484Z,2.67
2022-12-22T18:22:29.718Z,2.58
2022-12-22T18:24:57.147Z,2.22
2022-12-22T18:27:24.244Z,2.17
2022-12-22T18:29:51.034Z,1.90
2022-12-22T18:32:26.364Z,3.15
2022-12-22T18:34:54.515Z,2.08
2022-12-22T18:37:21.411Z,2.50
2022-12-22T18:39:48.260Z,2.10
2022-12-22T18:42:23.186Z,1.80
2022-12-22T18:44:51.177Z,1.70
2022-12-22T18:47:17.969Z,1.50
2022-12-22T18:49:45.262Z,1.35
2022-12-22T18:52:23.637Z,2.05
2022-12-22T18:54:50.490Z,2.42
2022-12-22T18:57:19.179Z,1.98
2022-12-22T18:59:47.591Z,1.77
2022-12-22T19:02:20.300Z,1.85
2022-12-22T19:04:48.559Z,1.70
2022-12-22T19:07:18.327Z,1.88
2022-12-22T19:09:45.896Z,1.52
2022-12-22T19:12:15.059Z,1.88
2022-12-22T19:14:48.935Z,1.60
2022-12-22T19:17:25.413Z,2.13
2022-12-22T19:19:52.112Z,1.60
2022-12-22T19:22:18.929Z,1.88
2022-12-22T19:24:46.397Z,1.67
2022-12-22T19:27:20.057Z,1.55
2022-12-22T19:29:46.703Z,2.00
2022-12-22T19:32:23.687Z,2.42
2022-12-22T19:34:50.858Z,1.60
2022-12-22T19:37:18.570Z,1.77
2022-12-22T19:39:46.081Z,2.03
2022-12-22T19:42:19.536Z,1.85
2022-12-22T19:44:46.842Z,1.45
2022-12-22T19:47:20.923Z,2.08
2022-12-22T19:49:48.559Z,1.60
2022-12-22T19:52:15.468Z,1.60
2022-12-22T19:54:42.146Z,1.95
2022-12-22T19:57:16.919Z,1.98
2022-12-22T19:59:47.277Z,2.40
2022-12-22T20:02:23.357Z,2.08
2022-12-22T20:04:50.766Z,2.70
2022-12-22T20:07:20.837Z,2.63
2022-12-22T20:09:47.550Z,2.50
2022-12-22T20:12:28.815Z,2.63
2022-12-22T20:14:55.908Z,2.10
2022-12-22T20:17:22.643Z,2.45
2022-12-22T20:19:49.279Z,2.95
2022-12-22T20:22:18.480Z,2.17
2022-12-22T20:24:46.578Z,2.92
2022-12-22T20:27:24.551Z,3.88
2022-12-22T20:29:51.200Z,3.40
2022-12-22T20:32:22.329Z,1.90
2022-12-22T20:34:53.889Z,1.77
2022-12-22T20:37:20.584Z,2.03
2022-12-22T20:39:47.373Z,3.67
2022-12-22T20:42:19.658Z,2.08
2022-12-22T20:45:02.333Z,1.33
2022-12-22T20:47:31.627Z,2.05
2022-12-22T20:49:58.339Z,1.50
2022-12-22T20:52:24.976Z,1.95
2022-12-22T20:54:51.710Z,1.70
2022-12-22T20:57:19.339Z,2.03
2022-12-22T20:59:53.882Z,2.78
2022-12-22T21:02:27.183Z,1.75
2022-12-22T21:04:54.011Z,2.47
2022-12-22T21:07:20.894Z,2.25
2022-12-22T21:09:47.685Z,2.00
2022-12-22T21:12:14.372Z,2.03
2022-12-22T21:14:41.270Z,2.08
2022-12-22T21:17:16.414Z,1.88
2022-12-22T21:19:43.423Z,2.00
2022-12-22T21:22:10.116Z,2.05
2022-12-22T21:24:37.254Z,1.70
2022-12-22T21:27:05.099Z,2.25
2022-12-22T21:29:32.079Z,1.85
2022-12-22T21:31:58.765Z,1.77
2022-12-22T21:34:25.448Z,1.90
2022-12-22T21:36:58.753Z,1.73
2022-12-22T21:39:39.366Z,1.52
2022-12-22T21:42:06.677Z,1.40
2022-12-22T21:44:35.215Z,1.70
2022-12-22T21:47:02.624Z,1.63
2022-12-22T21:49:31.956Z,1.75
2022-12-22T21:51:59.173Z,1.42
2022-12-22T21:54:26.839Z,1.30
2022-12-22T21:56:54.334Z,1.48
2022-12-22T21:59:21.860Z,1.70
2022-12-22T22:01:48.897Z,2.38
2022-12-22T22:04:15.725Z,1.23
2022-12-22T22:06:42.472Z,1.95
2022-12-22T22:09:09.262Z,1.52
2022-12-22T22:11:56.003Z,1.52
2022-12-22T22:14:22.653Z,1.27
2022-12-22T22:16:49.655Z,1.02
2022-12-22T22:19:18.151Z,1.52
2022-12-22T22:21:45.911Z,1.50
2022-12-22T22:24:13.345Z,1.20
2022-12-22T22:26:40.392Z,1.50
2022-12-22T22:29:07.529Z,1.48
2022-12-22T22:31:34.622Z,1.08
2022-12-22T22:34:01.319Z,1.00
2022-12-22T22:36:28.252Z,1.58
2022-12-22T22:38:54.992Z,1.17
2022-12-22T22:41:21.763Z,1.20
2022-12-22T22:43:48.690Z,1.08
2022-12-22T22:46:15.726Z,0.90
2022-12-22T22:48:42.684Z,0.90
2022-12-22T22:51:10.888Z,0.98
2022-12-22T22:53:37.580Z,1.00
2022-12-22T22:56:04.587Z,0.70
2022-12-22T22:58:31.319Z,1.15
2022-12-22T23:01:05.383Z,1.23
2022-12-22T23:03:32.109Z,0.65
2022-12-22T23:06:07.782Z,0.70
2022-12-22T23:08:35.109Z,0.90
2022-12-22T23:11:02.707Z,0.70
2022-12-22T23:13:29.868Z,0.75
2022-12-22T23:16:03.160Z,0.80
2022-12-22T23:18:31.146Z,1.00
2022-12-22T23:20:59.004Z,0.98
2022-12-22T23:23:25.781Z,1.20
2022-12-22T23:25:52.612Z,1.35
2022-12-22T23:28:19.592Z,1.50
2022-12-22T23:30:49.255Z,1.20
2022-12-22T23:33:16.397Z,1.42
2022-12-22T23:35:46.581Z,1.58
2022-12-22T23:38:14.787Z,1.27
2022-12-22T23:40:52.173Z,1.52
2022-12-22T23:43:19.963Z,1.58
2022-12-22T23:45:46.685Z,1.67
2022-12-22T23:48:13.376Z,1.30
2022-12-22T23:50:40.068Z,1.92
2022-12-22T23:53:06.731Z,1.73
2022-12-22T23:55:33.465Z,0.95
2022-12-22T23:58:00.377Z,1.20
